createdAt,value
2019-03-18T00:01:53.517Z,6.09
2019-03-18T00:04:25.857Z,6.10
2019-03-18T00:06:58.178Z,6.05
2019-03-18T00:09:31.041Z,6.07
2019-03-18T00:12:03.025Z,6.07
2019-03-18T00:14:35.583Z,6.07
2019-03-18T00:17:09.797Z,6.06
2019-03-18T00:19:43.070Z,6.06
2019-03-18T00:22:15.969Z,6.05
2019-03-18T00:24:48.107Z,6.04
2019-03-18T00:27:20.515Z,6.03
2019-03-18T00:29:52.786Z,5.99
2019-03-18T00:32:25.252Z,6.00
2019-03-18T00:34:57.628Z,5.98
2019-03-18T00:37:30.096Z,6.00
2019-03-18T00:40:02.009Z,5.98
2019-03-18T00:42:34.437Z,5.97
2019-03-18T00:45:14.596Z,5.95
2019-03-18T00:47:42.861Z,5.95
2019-03-18T00:50:19.239Z,5.97
2019-03-18T00:52:51.717Z,6.01
2019-03-18T00:55:23.630Z,6.00
2019-03-18T00:57:56.039Z,5.98
2019-03-18T01:00:28.513Z,5.98
2019-03-18T01:03:00.882Z,5.96
2019-03-18T01:05:33.164Z,5.94
2019-03-18T01:08:05.635Z,5.94
2019-03-18T01:10:37.902Z,5.94
2019-03-18T01:13:10.376Z,5.90
2019-03-18T01:15:42.286Z,5.91
2019-03-18T01:18:16.245Z,5.94
2019-03-18T01:20:49.640Z,5.92
2019-03-18T01:23:22.010Z,5.93
2019-03-18T01:25:55.305Z,5.91
2019-03-18T01:28:27.265Z,5.90
2019-03-18T01:30:59.179Z,5.87
2019-03-18T01:33:31.226Z,5.86
2019-03-18T01:36:03.562Z,5.86
2019-03-18T01:38:35.939Z,5.87
2019-03-18T01:41:08.208Z,5.87
2019-03-18T01:43:40.580Z,5.80
2019-03-18T01:46:12.850Z,5.83
2019-03-18T01:48:45.222Z,5.79
2019-03-18T01:51:17.127Z,5.76
2019-03-18T01:53:49.089Z,5.78
2019-03-18T01:56:21.407Z,5.75
2019-03-18T01:58:53.465Z,5.72
2019-03-18T02:01:25.376Z,5.70
2019-03-18T02:03:58.014Z,5.70
2019-03-18T02:06:29.923Z,5.76
2019-03-18T02:09:02.246Z,5.77
2019-03-18T02:11:34.521Z,5.78
2019-03-18T02:14:06.989Z,5.78
2019-03-18T02:16:39.264Z,5.76
2019-03-18T02:19:11.944Z,5.76
2019-03-18T02:21:44.209Z,5.73
2019-03-18T02:24:16.679Z,5.73
2019-03-18T02:26:49.059Z,5.73
2019-03-18T02:29:21.432Z,5.73
2019-03-18T02:31:53.702Z,5.74
2019-03-18T02:34:26.177Z,5.72
2019-03-18T02:36:58.079Z,5.73
2019-03-18T02:39:30.401Z,5.72
2019-03-18T02:42:02.679Z,5.68
2019-03-18T02:44:35.042Z,5.68
2019-03-18T02:47:07.318Z,5.65
2019-03-18T02:49:39.685Z,5.63
2019-03-18T02:52:12.056Z,5.61
2019-03-18T02:54:44.433Z,5.58
2019-03-18T02:57:16.758Z,5.55
2019-03-18T02:59:49.174Z,5.53
2019-03-18T03:02:21.077Z,5.48
2019-03-18T03:04:53.051Z,5.45
2019-03-18T03:07:25.368Z,5.46
2019-03-18T03:09:57.740Z,5.41
2019-03-18T03:12:30.016Z,5.38
2019-03-18T03:15:02.392Z,5.36
2019-03-18T03:17:35.673Z,5.32
2019-03-18T03:20:10.909Z,5.31
2019-03-18T03:22:43.290Z,5.30
2019-03-18T03:25:15.758Z,5.25
2019-03-18T03:27:47.659Z,5.25
2019-03-18T03:30:19.998Z,5.24
2019-03-18T03:32:52.309Z,5.20
2019-03-18T03:35:24.422Z,5.20
2019-03-18T03:37:56.336Z,5.19
2019-03-18T03:40:28.760Z,5.17
2019-03-18T03:43:01.036Z,5.16
2019-03-18T03:45:33.403Z,5.18
2019-03-18T03:48:05.534Z,5.13
2019-03-18T03:50:38.047Z,5.13
2019-03-18T03:53:10.175Z,5.12
2019-03-18T03:55:42.582Z,5.11
2019-03-18T03:58:14.858Z,5.10
2019-03-18T04:00:47.228Z,5.08
2019-03-18T04:03:19.604Z,5.07
2019-03-18T04:05:53.120Z,5.05
2019-03-18T04:08:25.370Z,5.04
2019-03-18T04:10:57.341Z,5.02
2019-03-18T04:13:29.600Z,5.06
2019-03-18T04:16:01.665Z,5.02
2019-03-18T04:18:33.935Z,5.01
2019-03-18T04:21:06.718Z,4.99
2019-03-18T04:23:38.985Z,4.95
2019-03-18T04:26:11.369Z,4.93
2019-03-18T04:28:43.681Z,4.90
2019-03-18T04:31:15.652Z,4.87
2019-03-18T04:33:47.991Z,4.89
2019-03-18T04:36:20.428Z,4.83
2019-03-18T04:38:52.707Z,4.85
2019-03-18T04:41:25.980Z,4.82
2019-03-18T04:43:58.262Z,4.83
2019-03-18T04:46:37.088Z,4.82
2019-03-18T04:49:11.022Z,4.77
2019-03-18T04:51:49.377Z,4.73
2019-03-18T04:54:23.117Z,4.69
2019-03-18T04:56:55.664Z,4.70
2019-03-18T04:59:28.129Z,4.69
2019-03-18T05:02:00.536Z,4.70
2019-03-18T05:04:32.809Z,4.66
2019-03-18T05:07:05.812Z,4.70
2019-03-18T05:09:38.165Z,4.69
2019-03-18T05:12:10.948Z,4.71
2019-03-18T05:14:42.850Z,4.71
2019-03-18T05:17:26.198Z,4.73
2019-03-18T05:19:48.806Z,4.70
2019-03-18T05:22:21.564Z,4.71
2019-03-18T05:24:53.825Z,4.73
2019-03-18T05:27:26.204Z,4.77
2019-03-18T05:29:58.473Z,4.79
2019-03-18T05:32:30.900Z,4.82
2019-03-18T05:35:02.807Z,4.85
2019-03-18T05:37:35.172Z,4.83
2019-03-18T05:40:09.297Z,4.87
2019-03-18T05:42:41.655Z,4.95
2019-03-18T05:45:13.567Z,5.02
2019-03-18T05:47:45.900Z,5.11
2019-03-18T05:50:18.271Z,5.22
2019-03-18T05:52:50.633Z,5.29
2019-03-18T05:55:22.912Z,5.35
2019-03-18T05:57:55.374Z,5.42
2019-03-18T06:00:27.413Z,5.47
2019-03-18T06:02:59.935Z,5.48
2019-03-18T06:05:32.303Z,5.59
2019-03-18T06:08:04.668Z,5.62
2019-03-18T06:10:37.035Z,5.60
2019-03-18T06:13:09.586Z,5.62
2019-03-18T06:15:41.884Z,5.63
2019-03-18T06:18:13.940Z,5.72
2019-03-18T06:20:46.212Z,5.81
2019-03-18T06:23:19.206Z,5.85
2019-03-18T06:25:51.118Z,5.91
2019-03-18T06:28:23.432Z,5.92
2019-03-18T06:30:55.808Z,5.93
2019-03-18T06:33:28.180Z,6.01
2019-03-18T06:36:00.446Z,6.02
2019-03-18T06:38:32.915Z,6.00
2019-03-18T06:41:06.423Z,6.10
2019-03-18T06:43:38.838Z,6.11
2019-03-18T06:46:11.162Z,6.11
2019-03-18T06:48:43.132Z,6.05
2019-03-18T06:51:15.391Z,6.20
2019-03-18T06:53:47.872Z,6.34
2019-03-18T06:56:20.138Z,6.60
2019-03-18T06:58:52.624Z,6.58
2019-03-18T07:01:24.886Z,6.60
2019-03-18T07:03:57.099Z,6.66
2019-03-18T07:06:29.419Z,6.45
2019-03-18T07:09:03.328Z,6.57
2019-03-18T07:11:35.603Z,6.82
2019-03-18T07:14:07.977Z,6.86
2019-03-18T07:16:40.247Z,6.79
2019-03-18T07:19:12.618Z,6.86
2019-03-18T07:21:45.098Z,6.90
2019-03-18T07:24:18.100Z,6.97
2019-03-18T07:26:50.448Z,7.05
2019-03-18T07:29:22.926Z,7.24
2019-03-18T07:31:56.604Z,7.14
2019-03-18T07:34:29.107Z,6.89
2019-03-18T07:37:01.472Z,6.90
2019-03-18T07:39:33.538Z,6.66
2019-03-18T07:42:06.751Z,6.84
2019-03-18T07:44:39.106Z,6.75
2019-03-18T07:47:11.366Z,6.72
2019-03-18T07:49:43.737Z,6.76
2019-03-18T07:52:16.013Z,6.98
2019-03-18T07:54:48.387Z,6.71
2019-03-18T07:57:20.653Z,6.54
2019-03-18T07:59:53.021Z,6.52
2019-03-18T08:02:25.149Z,6.51
2019-03-18T08:04:57.662Z,6.61
2019-03-18T08:07:29.577Z,6.99
2019-03-18T08:10:02.522Z,6.95
2019-03-18T08:12:35.802Z,7.29
2019-03-18T08:15:13.213Z,7.16
2019-03-18T08:17:45.568Z,7.10
2019-03-18T08:20:17.941Z,6.92
2019-03-18T08:22:50.210Z,6.78
2019-03-18T08:25:23.097Z,6.97
2019-03-18T08:27:55.357Z,6.95
2019-03-18T08:30:27.736Z,7.01
2019-03-18T08:32:59.647Z,6.99
2019-03-18T08:35:32.269Z,6.95
2019-03-18T08:38:04.545Z,6.86
2019-03-18T08:40:36.988Z,6.68
2019-03-18T08:43:09.287Z,6.56
2019-03-18T08:45:41.758Z,6.61
2019-03-18T08:48:14.032Z,6.97
2019-03-18T08:50:46.406Z,7.00
2019-03-18T08:53:18.777Z,7.19
2019-03-18T08:55:51.143Z,7.30
2019-03-18T08:58:24.721Z,7.52
2019-03-18T09:00:57.221Z,7.50
2019-03-18T09:03:29.589Z,7.48
2019-03-18T09:06:02.084Z,7.31
2019-03-18T09:08:34.333Z,7.19
2019-03-18T09:11:06.871Z,7.12
2019-03-18T09:13:38.780Z,7.07
2019-03-18T09:16:12.581Z,6.90
2019-03-18T09:18:44.848Z,6.69
2019-03-18T09:21:17.321Z,6.72
2019-03-18T09:23:49.697Z,6.74
2019-03-18T09:26:22.791Z,6.76
2019-03-18T09:28:55.800Z,6.77
2019-03-18T09:31:28.238Z,6.84
2019-03-18T09:34:00.254Z,6.99
2019-03-18T09:36:32.581Z,7.09
2019-03-18T09:39:06.283Z,7.26
2019-03-18T09:41:38.658Z,7.59
2019-03-18T09:44:11.030Z,7.72
2019-03-18T09:46:43.399Z,7.79
2019-03-18T09:49:21.492Z,7.52
2019-03-18T09:51:49.270Z,7.32
2019-03-18T09:54:21.185Z,7.31
2019-03-18T09:56:53.150Z,7.40
2019-03-18T09:59:26.585Z,7.42
2019-03-18T10:02:00.241Z,7.71
2019-03-18T10:04:32.459Z,7.86
2019-03-18T10:07:04.838Z,7.95
2019-03-18T10:09:37.099Z,7.98
2019-03-18T10:12:09.478Z,7.96
2019-03-18T10:14:41.843Z,8.01
2019-03-18T10:17:13.846Z,7.94
2019-03-18T10:19:46.176Z,7.83
2019-03-18T10:22:18.764Z,7.86
2019-03-18T10:24:50.670Z,7.76
2019-03-18T10:27:23.084Z,7.45
2019-03-18T10:29:55.458Z,7.36
2019-03-18T10:32:27.840Z,7.41
2019-03-18T10:35:00.323Z,7.29
2019-03-18T10:37:32.683Z,7.49
2019-03-18T10:40:06.894Z,7.43
2019-03-18T10:42:39.273Z,7.46
2019-03-18T10:45:14.306Z,7.31
2019-03-18T10:47:46.778Z,7.27
2019-03-18T10:50:20.275Z,7.21
2019-03-18T10:52:52.683Z,7.21
2019-03-18T10:55:24.918Z,7.43
2019-03-18T10:57:57.255Z,7.65
2019-03-18T11:00:29.622Z,7.69
2019-03-18T11:03:01.995Z,8.06
2019-03-18T11:05:34.385Z,8.07
2019-03-18T11:08:06.582Z,7.97
2019-03-18T11:10:38.919Z,7.97
2019-03-18T11:13:11.292Z,8.04
2019-03-18T11:15:43.203Z,8.22
2019-03-18T11:18:15.616Z,8.00
2019-03-18T11:20:47.995Z,8.31
2019-03-18T11:23:20.367Z,8.63
2019-03-18T11:25:55.401Z,8.75
2019-03-18T11:28:27.767Z,8.52
2019-03-18T11:30:59.678Z,8.26
2019-03-18T11:33:32.715Z,8.28
2019-03-18T11:36:05.096Z,8.11
2019-03-18T11:38:37.469Z,8.13
2019-03-18T11:41:09.840Z,8.18
2019-03-18T11:43:42.417Z,8.22
2019-03-18T11:46:14.787Z,8.20
2019-03-18T11:48:47.155Z,8.21
2019-03-18T11:51:19.532Z,8.40
2019-03-18T11:53:52.015Z,8.81
2019-03-18T11:56:24.590Z,8.86
2019-03-18T11:58:57.058Z,8.84
2019-03-18T12:01:29.941Z,8.86
2019-03-18T12:04:02.407Z,8.81
2019-03-18T12:06:34.892Z,8.77
2019-03-18T12:09:08.392Z,8.56
2019-03-18T12:11:40.964Z,8.76
2019-03-18T12:14:13.440Z,8.80
2019-03-18T12:16:45.700Z,8.64
2019-03-18T12:19:18.141Z,8.70
2019-03-18T12:21:50.454Z,8.80
2019-03-18T12:24:23.533Z,8.67
2019-03-18T12:26:55.918Z,8.47
2019-03-18T12:29:28.290Z,8.78
2019-03-18T12:32:00.541Z,8.96
2019-03-18T12:34:32.922Z,9.06
2019-03-18T12:37:05.196Z,9.06
2019-03-18T12:39:37.169Z,9.10
2019-03-18T12:42:10.166Z,9.14
2019-03-18T12:44:42.509Z,9.26
2019-03-18T12:47:14.881Z,9.11
2019-03-18T12:49:47.270Z,9.22
2019-03-18T12:52:19.638Z,9.13
2019-03-18T12:54:52.186Z,9.07
2019-03-18T12:57:24.713Z,9.06
2019-03-18T12:59:57.402Z,9.24
2019-03-18T13:02:29.538Z,9.71
2019-03-18T13:05:01.906Z,9.38
2019-03-18T13:07:34.275Z,9.42
2019-03-18T13:10:11.053Z,9.34
2019-03-18T13:12:43.430Z,9.31
2019-03-18T13:15:22.249Z,9.08
2019-03-18T13:17:54.844Z,8.97
2019-03-18T13:20:28.369Z,8.93
2019-03-18T13:23:00.685Z,8.89
2019-03-18T13:25:33.055Z,8.85
2019-03-18T13:28:05.431Z,8.79
2019-03-18T13:30:37.812Z,8.71
2019-03-18T13:33:10.184Z,8.63
2019-03-18T13:35:43.231Z,8.50
2019-03-18T13:38:15.788Z,8.43
2019-03-18T13:40:48.115Z,8.49
2019-03-18T13:43:20.489Z,8.45
2019-03-18T13:45:55.606Z,8.45
2019-03-18T13:48:26.772Z,8.50
2019-03-18T13:50:59.140Z,8.48
2019-03-18T13:53:31.402Z,8.41
2019-03-18T13:56:03.782Z,8.48
2019-03-18T13:58:36.260Z,8.59
2019-03-18T14:01:08.615Z,8.60
2019-03-18T14:03:40.999Z,8.69
2019-03-18T14:06:13.383Z,8.56
2019-03-18T14:08:46.863Z,8.61
2019-03-18T14:11:20.988Z,8.79
2019-03-18T14:13:53.379Z,8.80
2019-03-18T14:16:25.735Z,8.63
2019-03-18T14:18:58.086Z,8.70
2019-03-18T14:21:33.406Z,8.93
2019-03-18T14:24:04.472Z,8.95
2019-03-18T14:26:36.856Z,8.85
2019-03-18T14:29:09.228Z,8.64
2019-03-18T14:31:43.768Z,8.70
2019-03-18T14:34:15.764Z,8.79
2019-03-18T14:36:48.179Z,8.79
2019-03-18T14:39:20.604Z,8.75
2019-03-18T14:41:53.206Z,8.76
2019-03-18T14:44:25.365Z,8.90
2019-03-18T14:46:58.286Z,9.15
2019-03-18T14:49:30.665Z,9.21
2019-03-18T14:52:05.695Z,9.23
2019-03-18T14:54:38.670Z,9.45
2019-03-18T14:57:11.151Z,11.06
2019-03-18T14:59:43.519Z,13.34
2019-03-18T15:02:15.992Z,10.21
2019-03-18T15:04:48.261Z,9.59
2019-03-18T15:07:20.237Z,10.80
2019-03-18T15:09:52.603Z,10.13
2019-03-18T15:12:24.967Z,11.88
2019-03-18T15:14:57.342Z,11.82
2019-03-18T15:17:29.724Z,13.40
2019-03-18T15:20:02.745Z,12.83
2019-03-18T15:22:35.183Z,13.27
2019-03-18T15:25:24.113Z,13.05
2019-03-18T15:27:59.970Z,14.13
2019-03-18T15:30:36.602Z,13.51
2019-03-18T15:33:10.171Z,12.91
2019-03-18T15:38:43.456Z,12.74
2019-03-18T15:41:23.008Z,12.25
2019-03-18T15:44:07.588Z,12.57
2019-03-18T15:46:48.108Z,12.36
2019-03-18T15:49:21.129Z,12.73
2019-03-18T15:51:54.658Z,11.40
2019-03-18T15:54:54.103Z,10.77
2019-03-18T15:57:29.870Z,10.09
2019-03-18T15:59:59.383Z,9.49
2019-03-18T16:02:31.712Z,9.33
2019-03-18T16:05:03.701Z,9.13
2019-03-18T16:07:36.010Z,8.92
2019-03-18T16:10:12.901Z,8.72
2019-03-18T16:12:46.354Z,8.60
2019-03-18T16:15:19.775Z,8.51
2019-03-18T16:17:52.151Z,8.49
2019-03-18T16:20:27.013Z,8.44
2019-03-18T16:22:59.333Z,8.38
2019-03-18T16:25:32.020Z,8.25
2019-03-18T16:28:04.186Z,8.16
2019-03-18T16:30:36.164Z,8.15
2019-03-18T16:33:08.518Z,8.12
2019-03-18T16:35:40.885Z,8.13
2019-03-18T16:38:12.798Z,8.07
2019-03-18T16:40:45.232Z,8.03
2019-03-18T16:43:17.592Z,7.99
2019-03-18T16:45:49.966Z,7.97
2019-03-18T16:48:22.233Z,7.98
2019-03-18T16:50:54.617Z,7.97
2019-03-18T16:53:27.448Z,7.92
2019-03-18T16:55:59.875Z,7.80
2019-03-18T16:58:32.556Z,7.69
2019-03-18T17:01:05.166Z,7.66
2019-03-18T17:03:37.539Z,7.56
2019-03-18T17:06:10.084Z,7.52
2019-03-18T17:08:42.187Z,7.43
2019-03-18T17:11:14.612Z,7.41
2019-03-18T17:13:46.983Z,7.34
2019-03-18T17:16:19.407Z,7.33
2019-03-18T17:18:51.721Z,7.25
2019-03-18T17:21:24.156Z,7.16
2019-03-18T17:23:56.468Z,7.06
2019-03-18T17:26:28.450Z,6.96
2019-03-18T17:29:00.807Z,6.89
2019-03-18T17:31:34.228Z,6.80
2019-03-18T17:34:07.160Z,6.85
2019-03-18T17:36:39.556Z,6.89
2019-03-18T17:39:14.417Z,6.92
2019-03-18T17:41:45.065Z,6.93
2019-03-18T17:44:17.285Z,7.00
2019-03-18T17:46:49.872Z,7.07
2019-03-18T17:49:22.346Z,7.11
2019-03-18T17:51:54.811Z,7.11
2019-03-18T17:54:27.081Z,7.11
2019-03-18T17:57:07.296Z,7.05
2019-03-18T17:59:34.599Z,6.92
2019-03-18T18:02:07.093Z,6.87
2019-03-18T18:04:39.088Z,6.76
2019-03-18T18:07:11.610Z,6.68
2019-03-18T18:09:43.980Z,6.60
2019-03-18T18:12:16.353Z,6.51
2019-03-18T18:14:48.738Z,6.38
2019-03-18T18:17:21.190Z,6.24
2019-03-18T18:19:53.574Z,6.15
2019-03-18T18:22:26.046Z,6.06
2019-03-18T18:24:58.418Z,6.00
2019-03-18T18:27:30.795Z,5.91
2019-03-18T18:30:03.152Z,5.88
2019-03-18T18:32:36.650Z,5.89
2019-03-18T18:35:10.937Z,5.91
2019-03-18T18:37:43.341Z,5.88
2019-03-18T18:40:30.257Z,5.86
2019-03-18T18:43:02.634Z,5.82
2019-03-18T18:45:35.010Z,5.80
2019-03-18T18:48:07.388Z,5.74
2019-03-18T18:50:39.745Z,5.69
2019-03-18T18:53:11.972Z,5.69
2019-03-18T18:55:44.383Z,5.73
2019-03-18T18:58:16.773Z,5.73
2019-03-18T19:00:49.024Z,5.86
2019-03-18T19:03:22.438Z,5.92
2019-03-18T19:05:57.253Z,5.89
2019-03-18T19:08:31.255Z,5.95
2019-03-18T19:11:05.196Z,5.98
2019-03-18T19:13:42.283Z,5.97
2019-03-18T19:16:17.444Z,5.94
2019-03-18T19:18:49.983Z,6.09
2019-03-18T19:21:22.349Z,6.07
2019-03-18T19:23:54.728Z,6.05
2019-03-18T19:26:27.087Z,6.02
2019-03-18T19:29:00.098Z,6.09
2019-03-18T19:31:32.444Z,6.04
2019-03-18T19:34:05.231Z,5.98
2019-03-18T19:36:38.729Z,5.94
2019-03-18T19:39:11.097Z,5.93
2019-03-18T19:41:43.872Z,5.84
2019-03-18T19:44:17.474Z,5.82
2019-03-18T19:46:50.391Z,5.80
2019-03-18T19:49:22.745Z,5.76
2019-03-18T19:51:55.113Z,5.74
2019-03-18T19:54:27.099Z,5.73
2019-03-18T19:56:59.443Z,5.71
2019-03-18T19:59:31.915Z,5.71
2019-03-18T20:02:04.299Z,5.72
2019-03-18T20:04:36.278Z,5.80
2019-03-18T20:07:08.627Z,5.86
2019-03-18T20:09:40.997Z,5.90
2019-03-18T20:12:12.918Z,5.94
2019-03-18T20:14:45.547Z,5.96
2019-03-18T20:17:17.866Z,5.99
2019-03-18T20:19:50.181Z,6.00
2019-03-18T20:22:22.550Z,5.98
2019-03-18T20:24:54.925Z,6.01
2019-03-18T20:27:27.286Z,5.98
2019-03-18T20:30:00.839Z,5.94
2019-03-18T20:32:33.581Z,5.94
2019-03-18T20:35:12.920Z,5.89
2019-03-18T20:37:45.407Z,5.91
2019-03-18T20:40:18.791Z,5.91
2019-03-18T20:42:59.830Z,5.87
2019-03-18T20:45:34.693Z,5.86
2019-03-18T20:48:07.108Z,5.85
2019-03-18T20:50:39.638Z,5.85
2019-03-18T20:53:12.009Z,5.86
2019-03-18T20:55:44.436Z,5.83
2019-03-18T20:58:16.747Z,5.83
2019-03-18T21:00:59.877Z,5.82
2019-03-18T21:03:32.350Z,5.80
2019-03-18T21:06:05.027Z,5.82
2019-03-18T21:08:37.286Z,5.77
2019-03-18T21:11:12.374Z,5.74
2019-03-18T21:13:56.474Z,5.73
2019-03-18T21:16:21.570Z,5.70
2019-03-18T21:18:53.845Z,5.68
2019-03-18T21:21:25.846Z,5.62
2019-03-18T21:23:58.191Z,5.53
2019-03-18T21:26:32.301Z,5.52
2019-03-18T21:29:04.673Z,5.53
2019-03-18T21:31:37.135Z,5.50
2019-03-18T21:34:09.506Z,5.45
2019-03-18T21:36:41.980Z,5.38
2019-03-18T21:39:14.568Z,5.38
2019-03-18T21:41:47.878Z,5.31
2019-03-18T21:44:20.327Z,5.28
2019-03-18T21:46:52.700Z,5.24
2019-03-18T21:49:24.970Z,5.21
2019-03-18T21:51:57.653Z,5.15
2019-03-18T21:54:33.988Z,5.12
2019-03-18T21:57:04.540Z,5.11
2019-03-18T21:59:37.019Z,5.05
2019-03-18T22:02:09.451Z,5.00
2019-03-18T22:04:41.775Z,4.96
2019-03-18T22:07:21.808Z,4.91
2019-03-18T22:10:02.712Z,4.81
2019-03-18T22:13:08.782Z,4.80
2019-03-18T22:15:45.027Z,4.70
2019-03-18T22:18:17.488Z,4.68
2019-03-18T22:20:49.858Z,4.57
2019-03-18T22:23:22.226Z,4.59
2019-03-18T22:25:54.375Z,4.57
2019-03-18T22:28:26.446Z,4.61
2019-03-18T22:30:58.729Z,4.62
2019-03-18T22:33:36.144Z,4.56
2019-03-18T22:36:09.016Z,4.59
2019-03-18T22:38:41.691Z,4.64
2019-03-18T22:41:14.045Z,4.70
2019-03-18T22:43:49.894Z,4.78
2019-03-18T22:46:22.288Z,4.83
2019-03-18T22:48:54.661Z,4.86
2019-03-18T22:51:28.156Z,4.90
2019-03-18T22:54:00.521Z,4.91
2019-03-18T22:56:32.951Z,4.94
2019-03-18T22:59:04.937Z,4.97
2019-03-18T23:01:37.227Z,4.96
2019-03-18T23:04:09.203Z,4.97
2019-03-18T23:06:41.560Z,4.96
2019-03-18T23:09:14.054Z,4.91
2019-03-18T23:11:46.417Z,4.85
2019-03-18T23:14:18.881Z,4.79
2019-03-18T23:16:51.159Z,4.71
2019-03-18T23:19:23.624Z,4.66
2019-03-18T23:21:56.000Z,4.60
2019-03-18T23:24:28.368Z,4.62
2019-03-18T23:27:00.302Z,4.60
2019-03-18T23:29:32.698Z,4.61
2019-03-18T23:32:04.628Z,4.60
2019-03-18T23:34:37.137Z,4.57
2019-03-18T23:37:09.517Z,4.54
2019-03-18T23:39:41.508Z,4.47
2019-03-18T23:42:13.855Z,4.40
2019-03-18T23:44:46.223Z,4.37
2019-03-18T23:47:18.602Z,4.34
2019-03-18T23:49:51.074Z,4.32
2019-03-18T23:52:22.985Z,4.33
2019-03-18T23:54:55.411Z,4.34
2019-03-18T23:57:27.775Z,4.30
